Pagina principală
METAR-TAF:

METAR-TAF

Aeroporturi :

Naval Outlying Landing Field Imperial Beach (Ream Field)

Imperial Beach, California, Statele Unite ale Americii

Latitudine: 32-33-47N, longitudine: 117-06-36W, elevație: 7 m

Observații meteo curente

Raportul a fost făcut în urmă cu 17 de minute, la 23:53 UTC
Vânt 7 kt de la Vest
Temperatură 22°C
Umiditate 78%
Presiune 1015 hPa
Vizibilitate: 16.1 km
Nori fragmentați la o înălțime de 1200 picior
Nori fragmentați la o înălțime de 4000 picior

METAR: KNRS 182353Z 27007KT 10SM BKN012 BKN040 22/18 A2997 RMK AO2 SLP149 T02220178 58009 $

Ora: 17:10 (00:10 UTC)


TAF: lipsă

Observații și prognoze meteo pentru peste 4.000 de aeroporturi (rapoarte METAR și TAF).

Stațiile disponibile sunt reprezentate pe hartă prin puncte galbene și roșii.

Țineți indicatorul mouse-ului pe punctul dorit pentru a vedea denumirea stației.

Apoi, faceți clic pentru a vedea observațiile și prognozele meteorologice.

Pentru a schimba harta: Pentru mărire, faceți clic pe butoanele verzi cu cruce neagră; pentru micșorare, pe butonul verde cu o liniuță; pentru hărți învecinate, pe săgețile verzi.


METAR-TAF: